sensor_id;sensor_type;location;lat;lon;timestamp;temperature;humidity
74822;DHT22;63353;48.702;8.884;2023-12-20T00:00:36;4.40;99.90
74822;DHT22;63353;48.702;8.884;2023-12-20T00:03:03;4.50;99.90
74822;DHT22;63353;48.702;8.884;2023-12-20T00:05:29;4.50;99.90
74822;DHT22;63353;48.702;8.884;2023-12-20T00:07:57;4.50;99.90
74822;DHT22;63353;48.702;8.884;2023-12-20T00:10:23;4.50;99.90
74822;DHT22;63353;48.702;8.884;2023-12-20T00:12:48;4.50;99.90
74822;DHT22;63353;48.702;8.884;2023-12-20T00:15:14;4.50;99.90
74822;DHT22;63353;48.702;8.884;2023-12-20T00:17:39;4.50;99.90
74822;DHT22;63353;48.702;8.884;2023-12-20T00:20:06;4.50;99.90
74822;DHT22;63353;48.702;8.884;2023-12-20T00:22:32;4.40;99.90
74822;DHT22;63353;48.702;8.884;2023-12-20T00:24:58;4.50;99.90
74822;DHT22;63353;48.702;8.884;2023-12-20T00:27:23;4.40;99.90
74822;DHT22;63353;48.702;8.884;2023-12-20T00:29:49;4.50;99.90
74822;DHT22;63353;48.702;8.884;2023-12-20T00:32:16;4.50;99.90
74822;DHT22;63353;48.702;8.884;2023-12-20T00:34:42;4.60;99.90
74822;DHT22;63353;48.702;8.884;2023-12-20T00:37:08;4.50;99.90
74822;DHT22;63353;48.702;8.884;2023-12-20T00:39:34;4.50;99.90
74822;DHT22;63353;48.702;8.884;2023-12-20T00:41:59;4.50;99.90
74822;DHT22;63353;48.702;8.884;2023-12-20T00:44:25;4.50;99.90
74822;DHT22;63353;48.702;8.884;2023-12-20T00:46:52;4.50;99.90
74822;DHT22;63353;48.702;8.884;2023-12-20T00:49:18;4.60;99.90
74822;DHT22;63353;48.702;8.884;2023-12-20T00:51:44;4.50;99.90
74822;DHT22;63353;48.702;8.884;2023-12-20T00:54:09;4.50;99.90
74822;DHT22;63353;48.702;8.884;2023-12-20T00:56:35;4.50;99.90
74822;DHT22;63353;48.702;8.884;2023-12-20T00:59:01;4.50;99.90
74822;DHT22;63353;48.702;8.884;2023-12-20T01:01:26;4.60;99.90
74822;DHT22;63353;48.702;8.884;2023-12-20T01:03:52;4.60;99.90
74822;DHT22;63353;48.702;8.884;2023-12-20T01:06:18;4.70;99.90
74822;DHT22;63353;48.702;8.884;2023-12-20T01:08:43;4.70;99.90
74822;DHT22;63353;48.702;8.884;2023-12-20T01:11:09;4.70;99.90
74822;DHT22;63353;48.702;8.884;2023-12-20T01:13:35;4.70;99.90
74822;DHT22;63353;48.702;8.884;2023-12-20T01:16:00;4.80;99.90
74822;DHT22;63353;48.702;8.884;2023-12-20T01:18:26;4.80;99.90
74822;DHT22;63353;48.702;8.884;2023-12-20T01:20:52;4.90;99.90
74822;DHT22;63353;48.702;8.884;2023-12-20T01:23:18;4.90;99.90
74822;DHT22;63353;48.702;8.884;2023-12-20T01:25:43;4.90;99.90
74822;DHT22;63353;48.702;8.884;2023-12-20T01:28:09;4.80;99.90
74822;DHT22;63353;48.702;8.884;2023-12-20T01:30:35;4.90;99.90
74822;DHT22;63353;48.702;8.884;2023-12-20T01:33:01;4.90;99.90
74822;DHT22;63353;48.702;8.884;2023-12-20T01:35:26;4.90;99.90
74822;DHT22;63353;48.702;8.884;2023-12-20T01:37:52;4.80;99.90
74822;DHT22;63353;48.702;8.884;2023-12-20T01:40:22;4.80;99.90
74822;DHT22;63353;48.702;8.884;2023-12-20T01:42:47;4.80;99.90
74822;DHT22;63353;48.702;8.884;2023-12-20T01:45:22;4.70;99.90
74822;DHT22;63353;48.702;8.884;2023-12-20T01:47:48;4.80;99.90
74822;DHT22;63353;48.702;8.884;2023-12-20T01:50:14;4.80;99.90
74822;DHT22;63353;48.702;8.884;2023-12-20T01:52:41;4.80;99.90
74822;DHT22;63353;48.702;8.884;2023-12-20T01:55:08;4.70;99.90
74822;DHT22;63353;48.702;8.884;2023-12-20T01:57:39;4.70;99.90
74822;DHT22;63353;48.702;8.884;2023-12-20T02:00:06;4.70;99.90
74822;DHT22;63353;48.702;8.884;2023-12-20T02:02:33;4.70;99.90
74822;DHT22;63353;48.702;8.884;2023-12-20T02:04:59;4.80;99.90
74822;DHT22;63353;48.702;8.884;2023-12-20T02:07:24;4.90;99.90
74822;DHT22;63353;48.702;8.884;2023-12-20T02:09:50;4.80;99.90
74822;DHT22;63353;48.702;8.884;2023-12-20T02:12:16;4.90;99.90
74822;DHT22;63353;48.702;8.884;2023-12-20T02:14:42;4.90;99.90
74822;DHT22;63353;48.702;8.884;2023-12-20T02:17:07;5.00;99.90
74822;DHT22;63353;48.702;8.884;2023-12-20T02:19:33;4.90;99.90
74822;DHT22;63353;48.702;8.884;2023-12-20T02:22:09;4.80;99.90
74822;DHT22;63353;48.702;8.884;2023-12-20T02:24:35;4.80;99.90
74822;DHT22;63353;48.702;8.884;2023-12-20T02:27:01;4.80;99.90
74822;DHT22;63353;48.702;8.884;2023-12-20T02:29:27;4.70;99.90
74822;DHT22;63353;48.702;8.884;2023-12-20T02:31:52;4.70;99.90
74822;DHT22;63353;48.702;8.884;2023-12-20T02:34:18;4.70;99.90
74822;DHT22;63353;48.702;8.884;2023-12-20T02:36:44;4.70;99.90
74822;DHT22;63353;48.702;8.884;2023-12-20T02:39:09;4.70;99.90
74822;DHT22;63353;48.702;8.884;2023-12-20T02:41:35;4.70;99.90
74822;DHT22;63353;48.702;8.884;2023-12-20T02:44:01;4.70;99.90
74822;DHT22;63353;48.702;8.884;2023-12-20T02:46:27;4.70;99.90
74822;DHT22;63353;48.702;8.884;2023-12-20T02:48:53;4.80;99.90
74822;DHT22;63353;48.702;8.884;2023-12-20T02:51:18;4.80;99.90
74822;DHT22;63353;48.702;8.884;2023-12-20T02:53:44;4.80;99.90
74822;DHT22;63353;48.702;8.884;2023-12-20T02:56:09;4.80;99.90
74822;DHT22;63353;48.702;8.884;2023-12-20T02:58:35;4.80;99.90
74822;DHT22;63353;48.702;8.884;2023-12-20T03:01:01;4.70;99.90
74822;DHT22;63353;48.702;8.884;2023-12-20T03:03:26;4.70;99.90
74822;DHT22;63353;48.702;8.884;2023-12-20T03:05:52;4.70;99.90
74822;DHT22;63353;48.702;8.884;2023-12-20T03:08:18;4.70;99.90
74822;DHT22;63353;48.702;8.884;2023-12-20T03:10:43;4.70;99.90
74822;DHT22;63353;48.702;8.884;2023-12-20T03:13:09;4.60;99.90
74822;DHT22;63353;48.702;8.884;2023-12-20T03:15:34;4.60;99.90
74822;DHT22;63353;48.702;8.884;2023-12-20T03:18:00;4.70;99.90
74822;DHT22;63353;48.702;8.884;2023-12-20T03:20:26;4.60;99.90
74822;DHT22;63353;48.702;8.884;2023-12-20T03:22:52;4.60;99.90
74822;DHT22;63353;48.702;8.884;2023-12-20T03:25:17;4.50;99.90
74822;DHT22;63353;48.702;8.884;2023-12-20T03:27:43;4.50;99.90
74822;DHT22;63353;48.702;8.884;2023-12-20T03:30:09;4.50;99.90
74822;DHT22;63353;48.702;8.884;2023-12-20T03:32:34;4.40;99.90
74822;DHT22;63353;48.702;8.884;2023-12-20T03:35:00;4.40;99.90
74822;DHT22;63353;48.702;8.884;2023-12-20T03:37:26;4.30;99.90
74822;DHT22;63353;48.702;8.884;2023-12-20T03:39:51;4.30;99.90
74822;DHT22;63353;48.702;8.884;2023-12-20T03:42:17;4.30;99.90
74822;DHT22;63353;48.702;8.884;2023-12-20T03:44:42;4.30;99.90
74822;DHT22;63353;48.702;8.884;2023-12-20T03:47:08;4.20;99.90
74822;DHT22;63353;48.702;8.884;2023-12-20T03:49:34;4.20;99.90
74822;DHT22;63353;48.702;8.884;2023-12-20T03:52:02;4.20;99.90
74822;DHT22;63353;48.702;8.884;2023-12-20T03:54:28;4.20;99.90
74822;DHT22;63353;48.702;8.884;2023-12-20T03:56:54;4.20;99.90
74822;DHT22;63353;48.702;8.884;2023-12-20T03:59:20;4.20;99.90
74822;DHT22;63353;48.702;8.884;2023-12-20T04:01:45;4.10;99.90
74822;DHT22;63353;48.702;8.884;2023-12-20T04:04:11;4.10;99.90
74822;DHT22;63353;48.702;8.884;2023-12-20T04:06:38;4.00;99.90
74822;DHT22;63353;48.702;8.884;2023-12-20T04:09:03;4.00;99.90
74822;DHT22;63353;48.702;8.884;2023-12-20T04:11:29;4.00;99.90
74822;DHT22;63353;48.702;8.884;2023-12-20T04:13:55;3.90;99.90
74822;DHT22;63353;48.702;8.884;2023-12-20T04:16:21;3.90;99.90
74822;DHT22;63353;48.702;8.884;2023-12-20T04:18:46;3.90;99.90
74822;DHT22;63353;48.702;8.884;2023-12-20T04:21:12;3.90;99.90
74822;DHT22;63353;48.702;8.884;2023-12-20T04:23:38;4.00;99.90
74822;DHT22;63353;48.702;8.884;2023-12-20T04:26:03;4.00;99.90
74822;DHT22;63353;48.702;8.884;2023-12-20T04:28:29;3.90;99.90
74822;DHT22;63353;48.702;8.884;2023-12-20T04:30:57;3.90;99.90
74822;DHT22;63353;48.702;8.884;2023-12-20T04:33:23;3.90;99.90
74822;DHT22;63353;48.702;8.884;2023-12-20T04:35:48;3.90;99.90
74822;DHT22;63353;48.702;8.884;2023-12-20T04:38:14;3.90;99.90
74822;DHT22;63353;48.702;8.884;2023-12-20T04:40:40;3.90;99.90
74822;DHT22;63353;48.702;8.884;2023-12-20T04:43:07;3.90;99.90
74822;DHT22;63353;48.702;8.884;2023-12-20T04:45:34;3.90;99.90
74822;DHT22;63353;48.702;8.884;2023-12-20T04:48:00;3.90;99.90
74822;DHT22;63353;48.702;8.884;2023-12-20T04:50:26;3.80;99.90
74822;DHT22;63353;48.702;8.884;2023-12-20T04:52:52;3.90;99.90
74822;DHT22;63353;48.702;8.884;2023-12-20T04:55:17;3.80;99.90
74822;DHT22;63353;48.702;8.884;2023-12-20T04:57:44;3.80;99.90
74822;DHT22;63353;48.702;8.884;2023-12-20T05:00:10;3.80;99.90
74822;DHT22;63353;48.702;8.884;2023-12-20T05:02:36;3.80;99.90
74822;DHT22;63353;48.702;8.884;2023-12-20T05:05:02;3.80;99.90
74822;DHT22;63353;48.702;8.884;2023-12-20T05:07:28;3.90;99.90
74822;DHT22;63353;48.702;8.884;2023-12-20T05:09:53;3.90;99.90
74822;DHT22;63353;48.702;8.884;2023-12-20T05:12:19;4.00;99.90
74822;DHT22;63353;48.702;8.884;2023-12-20T05:14:46;3.90;99.90
74822;DHT22;63353;48.702;8.884;2023-12-20T05:17:11;3.90;99.90
74822;DHT22;63353;48.702;8.884;2023-12-20T05:19:37;3.90;99.90
74822;DHT22;63353;48.702;8.884;2023-12-20T05:22:03;3.80;99.90
74822;DHT22;63353;48.702;8.884;2023-12-20T05:24:28;3.80;99.90
74822;DHT22;63353;48.702;8.884;2023-12-20T05:26:54;3.80;99.90
74822;DHT22;63353;48.702;8.884;2023-12-20T05:29:20;3.90;99.90
74822;DHT22;63353;48.702;8.884;2023-12-20T05:31:46;3.90;99.90
74822;DHT22;63353;48.702;8.884;2023-12-20T05:34:11;3.90;99.90
74822;DHT22;63353;48.702;8.884;2023-12-20T05:36:37;3.90;99.90
74822;DHT22;63353;48.702;8.884;2023-12-20T05:39:04;3.80;99.90
74822;DHT22;63353;48.702;8.884;2023-12-20T05:41:30;3.90;99.90
74822;DHT22;63353;48.702;8.884;2023-12-20T05:43:56;3.90;99.90
74822;DHT22;63353;48.702;8.884;2023-12-20T05:46:24;4.00;99.90
74822;DHT22;63353;48.702;8.884;2023-12-20T05:48:49;4.00;99.90
74822;DHT22;63353;48.702;8.884;2023-12-20T05:51:18;4.00;99.90
74822;DHT22;63353;48.702;8.884;2023-12-20T05:53:44;4.00;99.90
74822;DHT22;63353;48.702;8.884;2023-12-20T05:56:10;4.00;99.90
74822;DHT22;63353;48.702;8.884;2023-12-20T05:58:36;4.00;99.90
74822;DHT22;63353;48.702;8.884;2023-12-20T06:01:04;4.00;99.90
74822;DHT22;63353;48.702;8.884;2023-12-20T06:03:30;4.10;99.90
74822;DHT22;63353;48.702;8.884;2023-12-20T06:05:55;4.00;99.90
74822;DHT22;63353;48.702;8.884;2023-12-20T06:08:21;4.00;99.90
74822;DHT22;63353;48.702;8.884;2023-12-20T06:10:47;4.00;99.90
74822;DHT22;63353;48.702;8.884;2023-12-20T06:13:12;4.00;99.90
74822;DHT22;63353;48.702;8.884;2023-12-20T06:15:39;4.10;99.90
74822;DHT22;63353;48.702;8.884;2023-12-20T06:18:06;4.00;99.90
74822;DHT22;63353;48.702;8.884;2023-12-20T06:20:32;4.00;99.90
74822;DHT22;63353;48.702;8.884;2023-12-20T06:22:58;4.00;99.90
74822;DHT22;63353;48.702;8.884;2023-12-20T06:25:24;4.00;99.90
74822;DHT22;63353;48.702;8.884;2023-12-20T06:27:50;3.90;99.90
74822;DHT22;63353;48.702;8.884;2023-12-20T06:30:16;4.00;99.90
74822;DHT22;63353;48.702;8.884;2023-12-20T06:32:42;4.00;99.90
74822;DHT22;63353;48.702;8.884;2023-12-20T06:35:08;4.00;99.90
74822;DHT22;63353;48.702;8.884;2023-12-20T06:37:35;4.00;99.90
74822;DHT22;63353;48.702;8.884;2023-12-20T06:40:01;4.00;99.90
74822;DHT22;63353;48.702;8.884;2023-12-20T06:42:26;4.10;99.90
74822;DHT22;63353;48.702;8.884;2023-12-20T06:44:52;4.00;99.90
74822;DHT22;63353;48.702;8.884;2023-12-20T06:47:18;4.00;99.90
74822;DHT22;63353;48.702;8.884;2023-12-20T06:49:44;4.00;99.90
74822;DHT22;63353;48.702;8.884;2023-12-20T06:52:09;4.00;99.90
74822;DHT22;63353;48.702;8.884;2023-12-20T06:54:35;4.00;99.90
74822;DHT22;63353;48.702;8.884;2023-12-20T06:57:01;4.00;99.90
74822;DHT22;63353;48.702;8.884;2023-12-20T06:59:28;4.10;99.90
74822;DHT22;63353;48.702;8.884;2023-12-20T07:01:54;4.10;99.90
74822;DHT22;63353;48.702;8.884;2023-12-20T07:04:20;4.10;99.90
74822;DHT22;63353;48.702;8.884;2023-12-20T07:06:48;4.00;99.90
74822;DHT22;63353;48.702;8.884;2023-12-20T07:09:17;4.00;99.90
74822;DHT22;63353;48.702;8.884;2023-12-20T07:11:43;4.00;99.90
74822;DHT22;63353;48.702;8.884;2023-12-20T07:14:08;4.00;99.90
74822;DHT22;63353;48.702;8.884;2023-12-20T07:16:35;4.00;99.90
74822;DHT22;63353;48.702;8.884;2023-12-20T07:19:01;4.10;99.90
74822;DHT22;63353;48.702;8.884;2023-12-20T07:21:28;4.10;99.90
74822;DHT22;63353;48.702;8.884;2023-12-20T07:23:53;4.10;99.90
74822;DHT22;63353;48.702;8.884;2023-12-20T07:26:20;4.20;99.90
74822;DHT22;63353;48.702;8.884;2023-12-20T07:28:46;4.20;99.90
74822;DHT22;63353;48.702;8.884;2023-12-20T07:31:12;4.20;99.90
74822;DHT22;63353;48.702;8.884;2023-12-20T07:33:37;4.10;99.90
74822;DHT22;63353;48.702;8.884;2023-12-20T07:36:03;4.10;99.90
74822;DHT22;63353;48.702;8.884;2023-12-20T07:38:29;4.00;99.90
74822;DHT22;63353;48.702;8.884;2023-12-20T07:40:55;4.00;99.90
74822;DHT22;63353;48.702;8.884;2023-12-20T07:43:20;4.00;99.90
74822;DHT22;63353;48.702;8.884;2023-12-20T07:45:47;4.00;99.90
74822;DHT22;63353;48.702;8.884;2023-12-20T07:48:12;3.90;99.90
74822;DHT22;63353;48.702;8.884;2023-12-20T07:50:38;3.90;99.90
74822;DHT22;63353;48.702;8.884;2023-12-20T07:53:03;3.90;99.90
74822;DHT22;63353;48.702;8.884;2023-12-20T07:55:29;3.90;99.90
74822;DHT22;63353;48.702;8.884;2023-12-20T07:57:57;3.90;99.90
74822;DHT22;63353;48.702;8.884;2023-12-20T08:00:22;3.90;99.90
74822;DHT22;63353;48.702;8.884;2023-12-20T08:02:48;3.90;99.90
74822;DHT22;63353;48.702;8.884;2023-12-20T08:05:13;3.90;99.90
74822;DHT22;63353;48.702;8.884;2023-12-20T08:07:39;4.00;99.90
74822;DHT22;63353;48.702;8.884;2023-12-20T08:10:06;4.00;99.90
74822;DHT22;63353;48.702;8.884;2023-12-20T08:12:31;4.10;99.90
74822;DHT22;63353;48.702;8.884;2023-12-20T08:14:58;4.00;99.90
74822;DHT22;63353;48.702;8.884;2023-12-20T08:17:23;4.10;99.90
74822;DHT22;63353;48.702;8.884;2023-12-20T08:19:49;4.00;99.90
74822;DHT22;63353;48.702;8.884;2023-12-20T08:22:14;4.10;99.90
74822;DHT22;63353;48.702;8.884;2023-12-20T08:24:40;4.00;99.90
74822;DHT22;63353;48.702;8.884;2023-12-20T08:27:06;4.00;99.90
74822;DHT22;63353;48.702;8.884;2023-12-20T08:29:31;4.00;99.90
74822;DHT22;63353;48.702;8.884;2023-12-20T08:31:57;3.90;99.90
74822;DHT22;63353;48.702;8.884;2023-12-20T08:34:23;4.00;99.90
74822;DHT22;63353;48.702;8.884;2023-12-20T08:36:50;3.90;99.90
74822;DHT22;63353;48.702;8.884;2023-12-20T08:39:16;3.80;99.90
74822;DHT22;63353;48.702;8.884;2023-12-20T08:41:42;3.70;99.90
74822;DHT22;63353;48.702;8.884;2023-12-20T08:44:08;3.60;99.90
74822;DHT22;63353;48.702;8.884;2023-12-20T08:46:34;3.50;99.90
74822;DHT22;63353;48.702;8.884;2023-12-20T08:48:59;3.40;99.90
74822;DHT22;63353;48.702;8.884;2023-12-20T08:51:27;3.40;99.90
74822;DHT22;63353;48.702;8.884;2023-12-20T08:53:53;3.30;99.90
74822;DHT22;63353;48.702;8.884;2023-12-20T08:56:19;3.20;99.90
74822;DHT22;63353;48.702;8.884;2023-12-20T08:58:46;3.20;99.90
74822;DHT22;63353;48.702;8.884;2023-12-20T09:01:12;3.10;99.90
74822;DHT22;63353;48.702;8.884;2023-12-20T09:03:38;3.20;99.90
74822;DHT22;63353;48.702;8.884;2023-12-20T09:06:04;3.30;99.90
74822;DHT22;63353;48.702;8.884;2023-12-20T09:08:30;3.60;99.90
74822;DHT22;63353;48.702;8.884;2023-12-20T09:10:56;3.70;99.90
74822;DHT22;63353;48.702;8.884;2023-12-20T09:13:22;3.90;99.90
74822;DHT22;63353;48.702;8.884;2023-12-20T09:15:54;4.00;99.90
74822;DHT22;63353;48.702;8.884;2023-12-20T09:18:20;4.10;99.90
74822;DHT22;63353;48.702;8.884;2023-12-20T09:20:46;4.30;99.90
74822;DHT22;63353;48.702;8.884;2023-12-20T09:23:11;4.30;99.90
74822;DHT22;63353;48.702;8.884;2023-12-20T09:25:38;4.50;99.90
74822;DHT22;63353;48.702;8.884;2023-12-20T09:28:04;4.60;99.90
74822;DHT22;63353;48.702;8.884;2023-12-20T09:30:30;4.70;99.90
74822;DHT22;63353;48.702;8.884;2023-12-20T09:33:00;4.80;99.90
74822;DHT22;63353;48.702;8.884;2023-12-20T09:35:25;4.80;99.90
74822;DHT22;63353;48.702;8.884;2023-12-20T09:37:51;4.90;99.90
74822;DHT22;63353;48.702;8.884;2023-12-20T09:40:22;4.70;99.90
74822;DHT22;63353;48.702;8.884;2023-12-20T09:43:08;4.90;99.90
74822;DHT22;63353;48.702;8.884;2023-12-20T09:45:34;5.00;99.90
74822;DHT22;63353;48.702;8.884;2023-12-20T09:48:00;5.20;99.90
74822;DHT22;63353;48.702;8.884;2023-12-20T09:50:26;5.40;99.90
74822;DHT22;63353;48.702;8.884;2023-12-20T09:52:53;5.50;99.90
74822;DHT22;63353;48.702;8.884;2023-12-20T09:55:19;5.70;99.90
74822;DHT22;63353;48.702;8.884;2023-12-20T09:57:49;5.70;99.90
74822;DHT22;63353;48.702;8.884;2023-12-20T10:00:15;5.50;99.90
74822;DHT22;63353;48.702;8.884;2023-12-20T10:02:49;5.40;99.90
74822;DHT22;63353;48.702;8.884;2023-12-20T10:05:17;5.10;99.90
74822;DHT22;63353;48.702;8.884;2023-12-20T10:07:46;4.90;99.90
74822;DHT22;63353;48.702;8.884;2023-12-20T10:10:13;4.90;99.90
74822;DHT22;63353;48.702;8.884;2023-12-20T10:12:39;4.70;99.90
74822;DHT22;63353;48.702;8.884;2023-12-20T10:15:05;4.70;99.90
74822;DHT22;63353;48.702;8.884;2023-12-20T10:17:31;4.70;99.90
74822;DHT22;63353;48.702;8.884;2023-12-20T10:19:58;4.50;99.90
74822;DHT22;63353;48.702;8.884;2023-12-20T10:22:24;4.40;99.90
74822;DHT22;63353;48.702;8.884;2023-12-20T10:24:49;4.40;99.90
74822;DHT22;63353;48.702;8.884;2023-12-20T10:27:18;4.30;99.90
74822;DHT22;63353;48.702;8.884;2023-12-20T10:29:45;4.30;99.90
74822;DHT22;63353;48.702;8.884;2023-12-20T10:32:27;4.30;99.90
74822;DHT22;63353;48.702;8.884;2023-12-20T10:34:53;4.30;99.90
74822;DHT22;63353;48.702;8.884;2023-12-20T10:37:19;4.20;99.90
74822;DHT22;63353;48.702;8.884;2023-12-20T10:39:54;4.40;99.90
74822;DHT22;63353;48.702;8.884;2023-12-20T10:42:26;4.60;99.90
74822;DHT22;63353;48.702;8.884;2023-12-20T10:44:52;4.80;99.90
74822;DHT22;63353;48.702;8.884;2023-12-20T10:47:20;4.70;99.90
74822;DHT22;63353;48.702;8.884;2023-12-20T10:49:46;4.60;99.90
74822;DHT22;63353;48.702;8.884;2023-12-20T10:52:12;4.60;99.90
74822;DHT22;63353;48.702;8.884;2023-12-20T10:54:41;4.60;99.90
74822;DHT22;63353;48.702;8.884;2023-12-20T10:57:07;4.50;99.90
74822;DHT22;63353;48.702;8.884;2023-12-20T10:59:37;4.50;99.90
74822;DHT22;63353;48.702;8.884;2023-12-20T11:02:04;4.50;99.90
74822;DHT22;63353;48.702;8.884;2023-12-20T11:04:47;4.60;99.90
74822;DHT22;63353;48.702;8.884;2023-12-20T11:08:36;4.60;99.90
74822;DHT22;63353;48.702;8.884;2023-12-20T11:10:37;4.50;99.90
74822;DHT22;63353;48.702;8.884;2023-12-20T11:13:22;4.50;99.90
74822;DHT22;63353;48.702;8.884;2023-12-20T11:15:49;4.30;99.90
74822;DHT22;63353;48.702;8.884;2023-12-20T11:18:15;4.20;99.90
74822;DHT22;63353;48.702;8.884;2023-12-20T11:20:41;4.20;99.90
74822;DHT22;63353;48.702;8.884;2023-12-20T11:23:09;4.30;99.90
74822;DHT22;63353;48.702;8.884;2023-12-20T11:25:55;4.20;99.90
74822;DHT22;63353;48.702;8.884;2023-12-20T11:28:25;4.20;99.90
74822;DHT22;63353;48.702;8.884;2023-12-20T11:30:55;4.20;99.90
74822;DHT22;63353;48.702;8.884;2023-12-20T11:33:22;4.30;99.90
74822;DHT22;63353;48.702;8.884;2023-12-20T11:35:49;4.30;99.90
74822;DHT22;63353;48.702;8.884;2023-12-20T11:38:15;4.30;99.90
74822;DHT22;63353;48.702;8.884;2023-12-20T11:40:47;4.30;99.90
74822;DHT22;63353;48.702;8.884;2023-12-20T11:43:29;4.30;99.90
74822;DHT22;63353;48.702;8.884;2023-12-20T11:45:55;4.30;99.90
74822;DHT22;63353;48.702;8.884;2023-12-20T11:48:22;4.20;99.90
74822;DHT22;63353;48.702;8.884;2023-12-20T11:50:48;4.20;99.90
74822;DHT22;63353;48.702;8.884;2023-12-20T11:53:14;4.10;99.90
74822;DHT22;63353;48.702;8.884;2023-12-20T11:55:39;4.20;99.90
74822;DHT22;63353;48.702;8.884;2023-12-20T11:58:05;4.20;99.90
74822;DHT22;63353;48.702;8.884;2023-12-20T12:00:31;4.20;99.90
74822;DHT22;63353;48.702;8.884;2023-12-20T12:03:00;4.30;99.90
74822;DHT22;63353;48.702;8.884;2023-12-20T12:05:28;4.30;99.90
74822;DHT22;63353;48.702;8.884;2023-12-20T12:07:56;4.40;99.90
74822;DHT22;63353;48.702;8.884;2023-12-20T12:10:22;4.50;99.90
74822;DHT22;63353;48.702;8.884;2023-12-20T12:12:48;4.60;99.90
74822;DHT22;63353;48.702;8.884;2023-12-20T12:15:14;4.50;99.90
74822;DHT22;63353;48.702;8.884;2023-12-20T12:17:40;4.50;99.90
74822;DHT22;63353;48.702;8.884;2023-12-20T12:20:06;4.50;99.90
74822;DHT22;63353;48.702;8.884;2023-12-20T12:22:32;4.50;99.90
74822;DHT22;63353;48.702;8.884;2023-12-20T12:24:59;4.50;99.90
74822;DHT22;63353;48.702;8.884;2023-12-20T12:27:27;4.50;99.90
74822;DHT22;63353;48.702;8.884;2023-12-20T12:30:03;4.60;99.90
74822;DHT22;63353;48.702;8.884;2023-12-20T12:32:30;4.70;99.90
74822;DHT22;63353;48.702;8.884;2023-12-20T12:34:57;4.70;99.90
74822;DHT22;63353;48.702;8.884;2023-12-20T12:37:23;4.80;99.90
74822;DHT22;63353;48.702;8.884;2023-12-20T12:39:54;4.70;99.90
74822;DHT22;63353;48.702;8.884;2023-12-20T12:42:20;4.80;99.90
74822;DHT22;63353;48.702;8.884;2023-12-20T12:44:47;5.10;99.90
74822;DHT22;63353;48.702;8.884;2023-12-20T12:47:13;5.40;99.90
74822;DHT22;63353;48.702;8.884;2023-12-20T12:49:40;5.40;99.90
74822;DHT22;63353;48.702;8.884;2023-12-20T12:52:06;5.40;99.90
74822;DHT22;63353;48.702;8.884;2023-12-20T12:54:31;5.40;99.90
74822;DHT22;63353;48.702;8.884;2023-12-20T12:57:00;5.50;99.90
74822;DHT22;63353;48.702;8.884;2023-12-20T12:59:26;5.50;99.90
74822;DHT22;63353;48.702;8.884;2023-12-20T13:01:51;5.40;99.90
74822;DHT22;63353;48.702;8.884;2023-12-20T13:04:17;5.40;99.90
74822;DHT22;63353;48.702;8.884;2023-12-20T13:06:42;5.50;99.90
74822;DHT22;63353;48.702;8.884;2023-12-20T13:09:08;5.40;99.90
74822;DHT22;63353;48.702;8.884;2023-12-20T13:11:35;5.30;99.90
74822;DHT22;63353;48.702;8.884;2023-12-20T13:14:00;5.20;99.90
74822;DHT22;63353;48.702;8.884;2023-12-20T13:16:26;5.30;99.90
74822;DHT22;63353;48.702;8.884;2023-12-20T13:18:52;5.40;99.90
74822;DHT22;63353;48.702;8.884;2023-12-20T13:21:18;5.60;99.90
74822;DHT22;63353;48.702;8.884;2023-12-20T13:23:43;5.70;99.90
74822;DHT22;63353;48.702;8.884;2023-12-20T13:26:09;5.60;99.90
74822;DHT22;63353;48.702;8.884;2023-12-20T13:28:35;5.50;99.90
74822;DHT22;63353;48.702;8.884;2023-12-20T13:31:00;5.30;99.90
74822;DHT22;63353;48.702;8.884;2023-12-20T13:33:27;5.20;99.90
74822;DHT22;63353;48.702;8.884;2023-12-20T13:35:53;5.50;99.90
74822;DHT22;63353;48.702;8.884;2023-12-20T13:38:19;5.40;99.90
74822;DHT22;63353;48.702;8.884;2023-12-20T13:40:44;5.10;99.90
74822;DHT22;63353;48.702;8.884;2023-12-20T13:43:10;5.00;99.90
74822;DHT22;63353;48.702;8.884;2023-12-20T13:45:39;4.90;99.90
74822;DHT22;63353;48.702;8.884;2023-12-20T13:48:05;4.70;99.90
74822;DHT22;63353;48.702;8.884;2023-12-20T13:50:31;4.60;99.90
74822;DHT22;63353;48.702;8.884;2023-12-20T13:52:56;4.60;99.90
74822;DHT22;63353;48.702;8.884;2023-12-20T13:55:22;4.80;99.90
74822;DHT22;63353;48.702;8.884;2023-12-20T13:57:51;4.80;99.90
74822;DHT22;63353;48.702;8.884;2023-12-20T14:00:16;4.70;99.90
74822;DHT22;63353;48.702;8.884;2023-12-20T14:02:42;4.70;99.90
74822;DHT22;63353;48.702;8.884;2023-12-20T14:05:09;4.60;99.90
74822;DHT22;63353;48.702;8.884;2023-12-20T14:07:35;4.50;99.90
74822;DHT22;63353;48.702;8.884;2023-12-20T14:10:01;4.40;99.90
74822;DHT22;63353;48.702;8.884;2023-12-20T14:12:26;4.30;99.90
74822;DHT22;63353;48.702;8.884;2023-12-20T14:14:52;4.30;99.90
74822;DHT22;63353;48.702;8.884;2023-12-20T14:17:18;4.20;99.90
74822;DHT22;63353;48.702;8.884;2023-12-20T14:19:43;4.20;99.90
74822;DHT22;63353;48.702;8.884;2023-12-20T14:22:09;4.20;99.90
74822;DHT22;63353;48.702;8.884;2023-12-20T14:24:37;4.20;99.90
74822;DHT22;63353;48.702;8.884;2023-12-20T14:27:03;4.20;99.90
74822;DHT22;63353;48.702;8.884;2023-12-20T14:29:28;4.00;99.90
74822;DHT22;63353;48.702;8.884;2023-12-20T14:31:54;4.10;99.90
74822;DHT22;63353;48.702;8.884;2023-12-20T14:34:20;4.00;99.90
74822;DHT22;63353;48.702;8.884;2023-12-20T14:36:45;4.00;99.90
74822;DHT22;63353;48.702;8.884;2023-12-20T14:39:11;3.90;99.90
74822;DHT22;63353;48.702;8.884;2023-12-20T14:41:38;3.90;99.90
74822;DHT22;63353;48.702;8.884;2023-12-20T14:44:05;3.90;99.90
74822;DHT22;63353;48.702;8.884;2023-12-20T14:46:32;3.80;99.90
74822;DHT22;63353;48.702;8.884;2023-12-20T14:48:57;3.90;99.90
74822;DHT22;63353;48.702;8.884;2023-12-20T14:51:23;4.00;99.90
74822;DHT22;63353;48.702;8.884;2023-12-20T14:53:50;3.90;99.90
74822;DHT22;63353;48.702;8.884;2023-12-20T14:56:15;3.80;99.90
74822;DHT22;63353;48.702;8.884;2023-12-20T14:58:41;3.80;99.90
74822;DHT22;63353;48.702;8.884;2023-12-20T15:01:07;3.70;99.90
74822;DHT22;63353;48.702;8.884;2023-12-20T15:03:34;3.70;99.90
74822;DHT22;63353;48.702;8.884;2023-12-20T15:06:00;3.70;99.90
74822;DHT22;63353;48.702;8.884;2023-12-20T15:08:26;3.60;99.90
74822;DHT22;63353;48.702;8.884;2023-12-20T15:10:51;3.60;99.90
74822;DHT22;63353;48.702;8.884;2023-12-20T15:13:17;3.50;99.90
74822;DHT22;63353;48.702;8.884;2023-12-20T15:15:42;3.50;99.90
74822;DHT22;63353;48.702;8.884;2023-12-20T15:18:08;3.40;99.90
74822;DHT22;63353;48.702;8.884;2023-12-20T15:20:34;3.40;99.90
74822;DHT22;63353;48.702;8.884;2023-12-20T15:23:02;3.30;99.90
74822;DHT22;63353;48.702;8.884;2023-12-20T15:25:32;3.30;99.90
74822;DHT22;63353;48.702;8.884;2023-12-20T15:27:58;3.40;99.90
74822;DHT22;63353;48.702;8.884;2023-12-20T15:30:23;3.30;99.90
74822;DHT22;63353;48.702;8.884;2023-12-20T15:32:50;3.30;99.90
74822;DHT22;63353;48.702;8.884;2023-12-20T15:35:16;3.30;99.90
74822;DHT22;63353;48.702;8.884;2023-12-20T15:37:42;3.20;99.90
74822;DHT22;63353;48.702;8.884;2023-12-20T15:40:08;3.20;99.90